默认 日期 大小 文件数 浏览量 最新下载 xml
radar磁力链接相关资源由用户搜索指令自动获取,结果来源于网络,本站不存储任何资料,亦不承担任何责任,请于24小时内删除,搜索到970个磁力,用时1ms。
    {"folder.jpg": 262421, "IND1GO - Te A Fai.mp3": 9258378, "Jaycen A'mour - Feel It.mp3": 6473737, "Naems, Maski & Banga - Persia.mp3": 7617913, "Patrick Moreno & Sage - You Again .mp3": 7880192, "Wasback, Divaro & RMCM - Over Again.mp3": 6530186, "Breeze & ...
创建时间: 2019-08-20 21:30:45 大小:57.44 MB 文件数量:9 热度:6 最近下载:2025-02-01 19:50:07
    {"eBook": {"Read Me.txt": 2645, "More eBooks.url": 230, "Learn C Language.url": 236, "Radar Systems Peak Detection and Tracking [CuPpY].pdf": 2476373}, "More eBooks.url": 230}
创建时间: 2019-08-21 09:21:12 大小:2.36 MB 文件数量:5 热度:6 最近下载:2024-10-27 14:57:02
    ... ": 9113728, "00. Scooter - Under The Radar Over The Top (NFO).nfo ... ": 2417, "00. Scooter - Under The Radar Over The Top (Cover Front ...
创建时间: 2019-08-21 11:47:38 大小:120.47 MB 文件数量:15 热度:8 最近下载:2025-09-19 12:13:03
    ... .EXE": 4080}, "archibel.ico": 2238, "radar.9.0-patch.exe": 26112 ...
创建时间: 2019-08-22 01:25:03 大小:399.54 MB 文件数量:95 热度:3 最近下载:2022-11-12 09:47:06
    {"num.18.01.05.alison.rey.under.the.radar.mp4": 1500793761}
创建时间: 2019-08-25 23:06:10 大小:1.4 GB 文件数量:1 热度:9 最近下载:2025-01-23 14:43:05
    ... 21884464, "Doc At The Radar Station PT-SHM Matrix.png ... 3882371, "Doc At The Radar Station PT-SHM Front + ... ": 292, "Doc At The Radar Station JP.jpg": 108067, " ... Band - Doc At The Radar Station PT-SHM.flac": ... Band - Doc At The Radar Station PT-SHM.accurip": 1235 ...
创建时间: 2019-08-26 04:00:54 大小:400.57 MB 文件数量:39 热度:6 最近下载:2024-10-24 22:52:02
    {"5": {"Pocket_WiFi_Radar_1.3.CAB": 1457547}, "6": {"Pocket_WiFi_Radar_1.3.CAB": 1457547}, "2003": {"Pocket_WiFi_Radar_1.3.CAB": 1457547}, "Прочти - ключ в низу.txt": 1986}
创建时间: 2019-08-26 10:05:05 大小:4.17 MB 文件数量:4 热度:4 最近下载:2022-11-12 12:38:44
    ... jpg": 22823, "Dutch Treat_047 Radar Love-15~Clean (Incubus). ... 4105994, "Dutch Treat_047 Radar Love-05~Radar Love (White Lion). ... ": 8600131, "Dutch Treat_047 Radar Love-07~Motorbreath (Metallica). ... ": 9264450, "Dutch Treat_047 Radar Love-08~Silent Scream (Royal ...
创建时间: 2019-09-23 22:03:47 大小:126.9 MB 文件数量:16 热度:3 最近下载:2022-11-15 19:46:00
    {"DARKSIDE RG.URL": 52, "Radar Principles~tqw~_darksiderg.nfo": 4582, "Radar Principles~tqw~_darksiderg.pdf": 37070347}
创建时间: 2019-09-25 18:01:19 大小:35.36 MB 文件数量:3 热度:4 最近下载:2022-11-12 12:48:50
    ... . 2.txt": 4267, "Twój Radar Premier vol. 2.jpg": 157228 ... , "CD Back Twój Radar Premier vol.1.jpg": 337590 ...
创建时间: 2019-09-25 21:13:53 大小:276.76 MB 文件数量:35 热度:4 最近下载:2022-11-15 19:51:50
    ... .flac": 3730792, "Doc at the Radar Station.cue": 2451, "11 - Sheriff ... Magic Band - Doc at the Radar Station.log": 5071, "00. Captain ... Magic Band - Doc at the Radar Station.nfo": 3502}
创建时间: 2019-09-26 22:12:11 大小:242.14 MB 文件数量:20 热度:6 最近下载:2025-10-17 03:22:02
    {"Readme.txt": 3733, "TomTom Europe.jpg": 61362, "Torrent downloaded from Demonoid.com.txt": 47, "iPhone TomTom Europe 1.6 Radar Safety Speed Cameras Map 8.60.3102.ipa": 2146847065}
创建时间: 2019-09-29 20:48:46 大小:2 GB 文件数量:4 热度:10 最近下载:2025-06-29 21:03:03
    {"Under The Radar.jpg": 82995, "Under The Radar.pdf": 770771}
创建时间: 2019-09-30 10:35:07 大小:833.76 KB 文件数量:2 热度:6 最近下载:2023-04-22 18:30:10
    {"DARKSIDE RG.URL": 52, "Polarimetric Radar Imaging~tqw~_darksiderg.nfo": 4103, "Polarimetric Radar Imaging~tqw~_darksiderg.pdf": 14526899}
创建时间: 2019-09-30 13:41:35 大小:13.86 MB 文件数量:3 热度:6 最近下载:2023-04-22 19:00:19
    {"Richards M. Fundamentals of Radar Signal Processing 2ed 2014.pdf": 31730344}
创建时间: 2019-09-30 21:09:50 大小:30.26 MB 文件数量:1 热度:7 最近下载:2025-03-25 16:04:02
    {"00 cover - motordelic logo.jpg": 62614, "02 Motordelic - Motor Rotor 140-bpm.mp3": 12886153, "01 Motordelic - Galaxy Radar 140-bpm.mp3": 16174767}
创建时间: 2019-10-01 03:04:52 大小:27.77 MB 文件数量:3 热度:6 最近下载:2025-03-01 04:44:01
    {"Donate.nfo": 4858, "White Collar S02E16 Under the Radar.720p.HDTV.x264-CTU [ALEX].avi": 361607588}
创建时间: 2019-10-03 21:32:04 大小:344.86 MB 文件数量:2 热度:5 最近下载:2022-11-12 10:59:25
    {"setup.exe": 6995456, "resource.bin": 16896, "resource1.bin": 2351104, "Топ игра 2019 года! Попробуй!.url": 146}
创建时间: 2019-10-05 21:35:56 大小:8.93 MB 文件数量:4 热度:7 最近下载:2025-04-10 01:37:02
    {"WiFi Radar Pro 2.4 MAC.zip": 45876137}
创建时间: 2019-10-09 17:27:58 大小:43.75 MB 文件数量:1 热度:6 最近下载:2024-12-18 03:50:01
    {"De Maio A. Compressed Sensing in Radar Signal Processing 2019.pdf": 16502515}
创建时间: 2019-10-10 07:40:22 大小:15.74 MB 文件数量:1 热度:9 最近下载:2025-10-13 19:21:03